createdAt,value
2022-08-23T00:02:26.862Z,99.90
2022-08-23T00:05:07.933Z,99.90
2022-08-23T00:07:39.115Z,99.90
2022-08-23T00:10:08.982Z,99.90
2022-08-23T00:12:36.209Z,99.90
2022-08-23T00:15:04.227Z,99.90
2022-08-23T00:17:34.047Z,99.90
2022-08-23T00:20:07.943Z,99.90
2022-08-23T00:22:35.790Z,99.90
2022-08-23T00:25:02.804Z,99.90
2022-08-23T00:27:29.503Z,99.90
2022-08-23T00:29:57.397Z,99.90
2022-08-23T00:32:25.239Z,99.90
2022-08-23T00:34:52.490Z,99.90
2022-08-23T00:37:20.379Z,99.90
2022-08-23T00:39:47.263Z,99.90
2022-08-23T00:42:55.328Z,99.90
2022-08-23T00:45:57.706Z,99.90
2022-08-23T00:48:24.861Z,99.90
2022-08-23T00:51:15.243Z,99.90
2022-08-23T00:53:47.420Z,99.90
2022-08-23T00:56:17.972Z,99.90
2022-08-23T00:58:46.293Z,99.90
2022-08-23T01:01:14.103Z,99.90
2022-08-23T01:03:44.815Z,99.90
2022-08-23T01:06:22.659Z,99.90
2022-08-23T01:08:59.593Z,99.90
2022-08-23T01:11:36.613Z,99.90
2022-08-23T01:14:11.544Z,99.90
2022-08-23T01:16:50.481Z,99.90
2022-08-23T01:19:31.890Z,99.90
2022-08-23T01:22:07.614Z,99.90
2022-08-23T01:25:05.903Z,99.90
2022-08-23T01:27:22.221Z,99.90
2022-08-23T01:29:48.862Z,99.90
2022-08-23T01:32:16.507Z,99.90
2022-08-23T01:34:45.410Z,99.90
2022-08-23T01:37:20.600Z,99.90
2022-08-23T01:39:47.494Z,99.90
2022-08-23T01:42:14.396Z,99.90
2022-08-23T01:44:41.092Z,99.90
2022-08-23T01:47:07.746Z,99.90
2022-08-23T01:49:35.075Z,99.90
2022-08-23T01:52:01.897Z,99.90
2022-08-23T01:54:29.256Z,99.90
2022-08-23T01:56:56.480Z,99.90
2022-08-23T01:59:24.151Z,99.90
2022-08-23T02:01:51.528Z,99.90
2022-08-23T02:04:18.292Z,99.90
2022-08-23T02:06:45.221Z,99.90
2022-08-23T02:09:17.482Z,99.90
2022-08-23T02:11:45.427Z,99.90
2022-08-23T02:14:15.546Z,99.90
2022-08-23T02:16:58.098Z,99.90
2022-08-23T02:19:32.688Z,99.90
2022-08-23T02:21:59.592Z,99.90
2022-08-23T02:24:26.979Z,99.90
2022-08-23T02:26:57.272Z,99.90
2022-08-23T02:29:29.446Z,99.90
2022-08-23T02:31:57.503Z,99.90
2022-08-23T02:34:25.019Z,99.90
2022-08-23T02:36:54.550Z,99.90
2022-08-23T02:39:21.304Z,99.90
2022-08-23T02:41:48.388Z,99.90
2022-08-23T02:44:15.472Z,99.90
2022-08-23T02:46:42.733Z,99.90
2022-08-23T02:49:09.941Z,99.90
2022-08-23T02:51:36.695Z,99.90
2022-08-23T02:54:04.166Z,99.90
2022-08-23T02:56:31.011Z,99.90
2022-08-23T02:58:57.817Z,99.90
2022-08-23T03:01:28.722Z,99.90
2022-08-23T03:03:56.336Z,99.90
2022-08-23T03:06:24.661Z,99.90
2022-08-23T03:08:53.535Z,99.90
2022-08-23T03:11:21.890Z,99.90
2022-08-23T03:13:49.525Z,99.90
2022-08-23T03:16:17.418Z,99.90
2022-08-23T03:18:44.057Z,99.90
2022-08-23T03:21:11.495Z,99.90
2022-08-23T03:23:39.628Z,99.90
2022-08-23T03:26:08.976Z,99.90
2022-08-23T03:28:37.072Z,99.90
2022-08-23T03:31:04.385Z,99.90
2022-08-23T03:33:31.064Z,99.90
2022-08-23T03:36:03.210Z,99.90
2022-08-23T03:38:29.979Z,99.90
2022-08-23T03:40:57.035Z,99.90
2022-08-23T03:43:23.664Z,99.90
2022-08-23T03:45:50.505Z,99.90
2022-08-23T03:48:17.911Z,99.90
2022-08-23T03:50:44.847Z,99.90
2022-08-23T03:53:13.009Z,99.90
2022-08-23T03:55:42.654Z,99.90
2022-08-23T03:58:10.883Z,99.90
2022-08-23T04:00:37.929Z,99.90
2022-08-23T04:03:05.117Z,99.90
2022-08-23T04:05:31.920Z,99.90
2022-08-23T04:07:58.846Z,99.90
2022-08-23T04:10:25.943Z,99.90
2022-08-23T04:12:54.723Z,99.90
2022-08-23T04:15:21.872Z,99.90
2022-08-23T04:17:48.614Z,99.90
2022-08-23T04:20:15.531Z,99.90
2022-08-23T04:22:42.910Z,99.90
2022-08-23T04:25:33.762Z,99.90
2022-08-23T04:28:00.573Z,99.90
2022-08-23T04:30:27.613Z,99.90
2022-08-23T04:32:54.381Z,99.90
2022-08-23T04:35:22.402Z,99.90
2022-08-23T04:37:49.359Z,99.90
2022-08-23T04:40:34.810Z,99.90
2022-08-23T04:43:02.162Z,99.90
2022-08-23T04:45:29.427Z,99.90
2022-08-23T04:47:56.576Z,99.90
2022-08-23T04:50:23.615Z,99.90
2022-08-23T04:52:50.369Z,99.90
2022-08-23T04:55:17.149Z,99.90
2022-08-23T04:57:44.673Z,99.90
2022-08-23T05:00:13.485Z,99.90
2022-08-23T05:02:40.351Z,99.90
2022-08-23T05:05:08.317Z,99.90
2022-08-23T05:07:42.371Z,99.90
2022-08-23T05:10:12.797Z,99.90
2022-08-23T05:12:40.184Z,99.90
2022-08-23T05:15:08.600Z,99.90
2022-08-23T05:17:36.262Z,99.90
2022-08-23T05:20:03.606Z,99.90
2022-08-23T05:22:34.306Z,99.90
2022-08-23T05:25:01.311Z,99.90
2022-08-23T05:27:27.976Z,99.90
2022-08-23T05:29:54.665Z,99.90
2022-08-23T05:32:22.684Z,99.90
2022-08-23T05:34:49.662Z,99.90
2022-08-23T05:37:16.904Z,99.90
2022-08-23T05:39:44.075Z,99.90
2022-08-23T05:42:14.109Z,99.90
2022-08-23T05:44:40.886Z,99.90
2022-08-23T05:47:11.555Z,99.90
2022-08-23T05:49:39.771Z,99.90
2022-08-23T05:52:08.917Z,99.90
2022-08-23T05:54:36.118Z,99.90
2022-08-23T05:57:02.835Z,99.90
2022-08-23T05:59:29.682Z,99.90
2022-08-23T06:01:56.977Z,99.90
2022-08-23T06:04:24.017Z,99.90
2022-08-23T06:06:50.767Z,99.90
2022-08-23T06:09:18.548Z,99.90
2022-08-23T06:11:47.946Z,99.90
2022-08-23T06:14:15.944Z,99.90
2022-08-23T06:16:46.897Z,99.90
2022-08-23T06:19:14.917Z,99.90
2022-08-23T06:21:43.082Z,99.90
2022-08-23T06:24:10.518Z,99.90
2022-08-23T06:26:40.511Z,99.90
2022-08-23T06:29:11.161Z,99.90
2022-08-23T06:31:46.872Z,99.90
2022-08-23T06:34:20.706Z,99.90
2022-08-23T06:36:57.095Z,99.90
2022-08-23T06:39:25.614Z,99.90
2022-08-23T06:41:53.175Z,99.90
2022-08-23T06:44:20.446Z,99.90
2022-08-23T06:46:49.065Z,99.90
2022-08-23T06:49:15.980Z,99.90
2022-08-23T06:51:46.170Z,99.90
2022-08-23T06:54:14.554Z,99.90
2022-08-23T06:56:43.000Z,99.90
2022-08-23T06:59:09.810Z,99.90
2022-08-23T07:01:47.532Z,99.90
2022-08-23T07:04:17.243Z,99.90
2022-08-23T07:06:44.174Z,99.90
2022-08-23T07:09:11.209Z,99.90
2022-08-23T07:11:39.380Z,99.90
2022-08-23T07:14:08.906Z,99.90
2022-08-23T07:16:39.136Z,99.90
2022-08-23T07:19:06.376Z,99.90
2022-08-23T07:21:33.691Z,99.90
2022-08-23T07:24:00.413Z,99.90
2022-08-23T07:26:27.592Z,99.90
2022-08-23T07:28:57.052Z,99.90
2022-08-23T07:31:30.874Z,99.90
2022-08-23T07:34:04.439Z,99.90
2022-08-23T07:36:32.861Z,99.90
2022-08-23T07:39:00.319Z,99.90
2022-08-23T07:41:32.901Z,99.90
2022-08-23T07:44:02.181Z,99.90
2022-08-23T07:46:31.280Z,99.90
2022-08-23T07:49:00.127Z,99.90
2022-08-23T07:51:27.786Z,99.90
2022-08-23T07:53:54.514Z,99.90
2022-08-23T07:56:21.755Z,99.90
2022-08-23T07:58:48.407Z,99.90
2022-08-23T08:01:23.792Z,99.90
2022-08-23T08:03:53.892Z,99.90
2022-08-23T08:06:41.880Z,99.90
2022-08-23T08:09:10.110Z,99.90
2022-08-23T08:11:37.363Z,99.90
2022-08-23T08:14:09.350Z,99.90
2022-08-23T08:16:40.617Z,99.90
2022-08-23T08:19:10.056Z,99.90
2022-08-23T08:21:42.159Z,99.90
2022-08-23T08:24:10.483Z,99.90
2022-08-23T08:26:37.234Z,99.90
2022-08-23T08:29:05.158Z,99.90
2022-08-23T08:31:32.579Z,99.90
2022-08-23T08:33:59.496Z,99.90
2022-08-23T08:36:39.211Z,99.90
2022-08-23T08:39:10.480Z,99.90
2022-08-23T08:42:00.385Z,99.90
2022-08-23T08:44:47.322Z,99.90
2022-08-23T08:47:39.353Z,99.90
2022-08-23T08:50:05.929Z,99.90
2022-08-23T08:52:41.987Z,99.90
2022-08-23T08:55:14.482Z,99.90
2022-08-23T08:57:46.220Z,99.90
2022-08-23T09:00:22.367Z,99.90
2022-08-23T09:02:50.405Z,99.90
2022-08-23T09:05:26.786Z,99.90
2022-08-23T09:08:22.839Z,99.90
2022-08-23T09:11:26.495Z,99.90
2022-08-23T09:14:05.058Z,99.90
2022-08-23T09:16:43.879Z,99.90
2022-08-23T09:19:11.092Z,99.90
2022-08-23T09:22:13.447Z,99.90
2022-08-23T09:24:41.295Z,99.90
2022-08-23T09:27:10.014Z,99.90
2022-08-23T09:29:40.066Z,99.90
2022-08-23T09:32:32.941Z,99.90
2022-08-23T09:35:19.952Z,99.90
2022-08-23T09:38:01.541Z,99.90
2022-08-23T09:40:34.144Z,99.90
2022-08-23T09:43:18.026Z,99.90
2022-08-23T09:45:50.611Z,99.90
2022-08-23T09:48:41.596Z,99.90
2022-08-23T09:51:30.428Z,99.90
2022-08-23T09:54:17.814Z,99.90
2022-08-23T09:56:57.084Z,99.90
2022-08-23T09:59:26.762Z,99.90
2022-08-23T10:01:58.933Z,99.90
2022-08-23T10:04:37.640Z,99.90
2022-08-23T10:07:38.591Z,99.90
2022-08-23T10:10:43.566Z,99.90
2022-08-23T10:13:13.051Z,99.90
2022-08-23T10:16:04.605Z,99.90
2022-08-23T10:18:51.117Z,99.90
2022-08-23T10:21:39.138Z,99.90
2022-08-23T10:24:22.584Z,99.90
2022-08-23T10:27:29.767Z,99.90
2022-08-23T10:30:10.770Z,99.90
2022-08-23T10:33:02.444Z,99.90
2022-08-23T10:35:38.358Z,99.90
2022-08-23T10:38:23.514Z,99.90
2022-08-23T10:41:27.086Z,99.90
2022-08-23T10:44:15.878Z,99.90
2022-08-23T10:47:16.291Z,99.90
2022-08-23T10:49:43.974Z,99.90
2022-08-23T10:52:17.116Z,99.90
2022-08-23T10:54:59.596Z,99.90
2022-08-23T10:57:37.293Z,99.90
2022-08-23T11:00:18.525Z,99.90
2022-08-23T11:02:54.725Z,99.90
2022-08-23T11:05:21.631Z,99.90
2022-08-23T11:08:07.167Z,99.90
2022-08-23T11:10:39.712Z,99.90
2022-08-23T11:13:18.407Z,99.90
2022-08-23T11:15:47.102Z,99.90
2022-08-23T11:18:35.482Z,99.90
2022-08-23T11:21:31.621Z,99.90
2022-08-23T11:23:58.441Z,99.90
2022-08-23T11:26:28.314Z,99.90
2022-08-23T11:29:20.892Z,99.90
2022-08-23T11:32:13.196Z,99.90
2022-08-23T11:35:05.370Z,99.90
2022-08-23T11:37:55.790Z,99.90
2022-08-23T11:40:42.512Z,99.90
2022-08-23T11:43:31.766Z,99.90
2022-08-23T11:46:23.920Z,99.90
2022-08-23T11:49:15.770Z,99.90
2022-08-23T11:52:24.512Z,99.90
2022-08-23T11:55:00.054Z,99.90
2022-08-23T11:57:29.500Z,99.90
2022-08-23T12:00:14.936Z,99.90
2022-08-23T12:03:05.962Z,99.90
2022-08-23T12:05:38.737Z,99.90
2022-08-23T12:08:08.221Z,99.90
2022-08-23T12:10:40.607Z,99.90
2022-08-23T12:13:22.374Z,99.90
2022-08-23T12:16:16.179Z,99.90
2022-08-23T12:18:48.934Z,99.90
2022-08-23T12:21:33.309Z,99.90
2022-08-23T12:24:13.398Z,99.90
2022-08-23T12:27:02.472Z,99.90
2022-08-23T12:29:54.848Z,99.90
2022-08-23T12:32:36.324Z,99.90
2022-08-23T12:35:18.932Z,99.90
2022-08-23T12:38:04.252Z,99.90
2022-08-23T12:40:36.507Z,99.90
2022-08-23T12:43:16.721Z,99.90
2022-08-23T12:45:58.338Z,99.90
2022-08-23T12:48:33.488Z,99.90
2022-08-23T12:51:10.467Z,99.90
2022-08-23T12:53:44.976Z,99.90
2022-08-23T12:56:19.191Z,99.90
2022-08-23T12:58:54.017Z,99.90
2022-08-23T13:01:30.003Z,99.90
2022-08-23T13:04:09.157Z,99.90
2022-08-23T13:06:43.730Z,99.90
2022-08-23T13:09:25.002Z,99.90
2022-08-23T13:11:52.353Z,99.90
2022-08-23T13:14:45.263Z,99.90
2022-08-23T13:17:27.399Z,99.90
2022-08-23T13:20:17.092Z,99.90
2022-08-23T13:23:05.508Z,99.90
2022-08-23T13:25:42.709Z,99.90
2022-08-23T13:28:23.400Z,99.90
2022-08-23T13:31:06.149Z,99.90
2022-08-23T13:33:32.889Z,99.90
2022-08-23T13:36:13.747Z,99.90
2022-08-23T13:38:43.153Z,99.90
2022-08-23T13:41:26.207Z,99.90
2022-08-23T13:43:53.203Z,99.90
2022-08-23T13:46:28.501Z,99.90
2022-08-23T13:49:11.768Z,99.90
2022-08-23T13:51:45.272Z,99.90
2022-08-23T13:54:14.084Z,99.90
2022-08-23T13:56:51.735Z,99.90
2022-08-23T13:59:31.313Z,99.90
2022-08-23T14:02:02.701Z,99.90
2022-08-23T14:04:29.426Z,99.90
2022-08-23T14:06:56.248Z,99.90
2022-08-23T14:09:22.905Z,99.90
2022-08-23T14:11:56.486Z,99.90
2022-08-23T14:14:24.393Z,99.90
2022-08-23T14:16:53.525Z,99.90
2022-08-23T14:22:07.048Z,99.90
2022-08-23T14:24:33.979Z,99.90
2022-08-23T14:27:01.164Z,99.90
2022-08-23T14:29:28.547Z,99.90
2022-08-23T14:31:57.049Z,99.90
2022-08-23T14:34:24.121Z,99.90
2022-08-23T14:39:39.099Z,99.90
2022-08-23T14:42:06.273Z,99.90
2022-08-23T14:44:36.332Z,99.90
2022-08-23T14:47:04.808Z,99.90
2022-08-23T14:49:32.564Z,99.90
2022-08-23T14:51:59.566Z,99.90
2022-08-23T14:54:28.179Z,99.90
2022-08-23T14:56:54.873Z,99.90
2022-08-23T14:59:21.995Z,99.90
2022-08-23T15:01:52.164Z,99.90
2022-08-23T15:04:21.638Z,99.90
2022-08-23T15:07:16.045Z,99.90
2022-08-23T15:09:36.532Z,99.90
2022-08-23T15:14:50.214Z,99.90
2022-08-23T15:17:17.018Z,99.90
2022-08-23T15:19:43.899Z,99.90
2022-08-23T15:22:21.465Z,99.90
2022-08-23T15:24:49.520Z,99.90
2022-08-23T15:27:17.894Z,99.90
2022-08-23T15:29:44.702Z,99.90
2022-08-23T15:32:12.706Z,99.90
2022-08-23T15:34:40.100Z,99.30
2022-08-23T15:37:14.901Z,98.40
2022-08-23T15:39:42.507Z,98.50
2022-08-23T15:42:09.519Z,99.40
2022-08-23T15:44:36.281Z,98.50
2022-08-23T15:47:05.590Z,98.50
2022-08-23T15:49:36.240Z,98.20
2022-08-23T15:52:04.114Z,98.70
2022-08-23T15:54:30.883Z,98.80
2022-08-23T15:56:57.914Z,98.70
2022-08-23T15:59:25.028Z,98.60
2022-08-23T16:01:52.105Z,98.70
2022-08-23T16:04:19.139Z,99.10
2022-08-23T16:06:46.304Z,97.90
2022-08-23T16:09:19.648Z,97.80
2022-08-23T16:11:46.439Z,97.90
2022-08-23T16:14:13.625Z,98.20
2022-08-23T16:16:42.045Z,98.80
2022-08-23T16:19:09.742Z,99.50
2022-08-23T16:21:36.566Z,99.80
2022-08-23T16:24:03.466Z,99.90
2022-08-23T16:26:35.157Z,99.90
2022-08-23T16:29:07.132Z,99.90
2022-08-23T16:31:38.638Z,99.70
2022-08-23T16:34:09.373Z,99.90
2022-08-23T16:36:36.454Z,99.70
2022-08-23T16:39:03.606Z,99.80
2022-08-23T16:41:30.300Z,99.90
2022-08-23T16:43:57.026Z,99.80
2022-08-23T16:46:24.533Z,99.90
2022-08-23T16:48:51.263Z,99.90
2022-08-23T16:51:18.923Z,99.90
2022-08-23T16:53:45.751Z,99.90
2022-08-23T16:56:29.717Z,99.90
2022-08-23T16:58:57.420Z,99.90
2022-08-23T17:01:24.499Z,99.90
2022-08-23T17:03:51.458Z,99.90
2022-08-23T17:06:18.234Z,99.90
2022-08-23T17:08:45.241Z,99.90
2022-08-23T17:11:15.613Z,99.90
2022-08-23T17:13:42.412Z,99.90
2022-08-23T17:16:10.886Z,99.90
2022-08-23T17:18:38.544Z,99.90
2022-08-23T17:21:06.005Z,99.90
2022-08-23T17:23:33.199Z,99.90
2022-08-23T17:26:03.693Z,99.90
2022-08-23T17:28:31.613Z,99.90
2022-08-23T17:30:59.217Z,99.90
2022-08-23T17:33:25.944Z,99.90
2022-08-23T17:35:52.788Z,99.90
2022-08-23T17:38:20.823Z,99.90
2022-08-23T17:40:47.673Z,99.90
2022-08-23T17:43:14.423Z,99.90
2022-08-23T17:45:46.922Z,99.90
2022-08-23T17:48:15.227Z,99.90
2022-08-23T17:50:43.453Z,99.90
2022-08-23T17:53:12.256Z,99.90
2022-08-23T17:55:40.726Z,99.90
2022-08-23T17:58:10.008Z,99.90
2022-08-23T18:00:38.542Z,99.90
2022-08-23T18:03:05.848Z,99.90
2022-08-23T18:05:37.297Z,99.90
2022-08-23T18:08:04.593Z,99.90
2022-08-23T18:10:31.592Z,99.90
2022-08-23T18:12:58.659Z,99.90
2022-08-23T18:15:26.855Z,99.90
2022-08-23T18:17:57.563Z,99.90
2022-08-23T18:20:26.902Z,99.90
2022-08-23T18:22:55.180Z,99.90
2022-08-23T18:25:22.116Z,99.90
2022-08-23T18:28:07.382Z,99.90
2022-08-23T18:30:37.817Z,99.90
2022-08-23T18:33:06.311Z,99.90
2022-08-23T18:35:34.480Z,99.90
2022-08-23T18:38:01.350Z,99.90
2022-08-23T18:40:29.331Z,99.90
2022-08-23T18:42:56.286Z,99.90
2022-08-23T18:45:23.119Z,99.90
2022-08-23T18:47:49.919Z,99.90
2022-08-23T18:50:17.380Z,99.90
2022-08-23T18:52:44.356Z,99.90
2022-08-23T18:55:11.307Z,99.90
2022-08-23T18:57:38.917Z,99.90
2022-08-23T19:00:08.567Z,99.90
2022-08-23T19:02:35.640Z,99.90
2022-08-23T19:05:03.198Z,99.90
2022-08-23T19:07:29.984Z,99.90
2022-08-23T19:09:56.678Z,99.90
2022-08-23T19:12:23.565Z,99.90
2022-08-23T19:14:50.235Z,99.90
2022-08-23T19:17:16.954Z,99.90
2022-08-23T19:19:43.682Z,99.90
2022-08-23T19:22:10.440Z,99.90
2022-08-23T19:24:37.062Z,99.90
2022-08-23T19:27:03.991Z,99.90
2022-08-23T19:29:32.401Z,99.90
2022-08-23T19:31:59.229Z,99.90
2022-08-23T19:34:26.778Z,99.90
2022-08-23T19:37:00.843Z,99.90
2022-08-23T19:39:28.868Z,99.90
2022-08-23T19:41:55.691Z,99.90
2022-08-23T19:44:22.592Z,99.90
2022-08-23T19:46:49.905Z,99.90
2022-08-23T19:49:16.627Z,99.90
2022-08-23T19:51:44.190Z,99.90
2022-08-23T19:54:12.609Z,99.90
2022-08-23T19:56:48.463Z,99.90
2022-08-23T19:59:23.028Z,99.90
2022-08-23T20:01:53.867Z,99.90
2022-08-23T20:04:22.272Z,99.90
2022-08-23T20:06:50.480Z,99.90
2022-08-23T20:09:18.900Z,99.90
2022-08-23T20:11:45.605Z,99.90
2022-08-23T20:14:12.565Z,99.90
2022-08-23T20:16:41.438Z,99.90
2022-08-23T20:19:09.300Z,99.90
2022-08-23T20:21:36.441Z,99.90
2022-08-23T20:24:04.022Z,99.90
2022-08-23T20:26:45.468Z,99.90
2022-08-23T20:29:18.433Z,99.90
2022-08-23T20:31:52.207Z,99.90
2022-08-23T20:34:19.313Z,99.90
2022-08-23T20:36:46.750Z,99.90
2022-08-23T20:39:13.480Z,99.90
2022-08-23T20:41:41.449Z,99.90
2022-08-23T20:44:09.261Z,99.90
2022-08-23T20:46:36.175Z,99.90
2022-08-23T20:49:03.929Z,99.90
2022-08-23T20:51:31.544Z,99.90
2022-08-23T20:54:04.456Z,99.90
2022-08-23T20:56:31.319Z,99.90
2022-08-23T20:58:57.966Z,99.90
2022-08-23T21:01:24.955Z,99.90
2022-08-23T21:03:51.703Z,99.90
2022-08-23T21:06:20.761Z,99.90
2022-08-23T21:08:53.508Z,99.90
2022-08-23T21:11:21.862Z,99.90
2022-08-23T21:13:48.686Z,99.90
2022-08-23T21:16:16.748Z,99.90
2022-08-23T21:18:44.096Z,99.90
2022-08-23T21:21:11.397Z,99.90
2022-08-23T21:23:38.464Z,99.90
2022-08-23T21:26:08.193Z,99.90
2022-08-23T21:28:36.167Z,99.90
2022-08-23T21:31:11.872Z,99.90
2022-08-23T21:33:40.351Z,99.90
2022-08-23T21:36:10.529Z,99.90
2022-08-23T21:38:37.815Z,99.90
2022-08-23T21:41:08.576Z,99.90
2022-08-23T21:43:39.226Z,99.90
2022-08-23T21:46:07.030Z,99.90
2022-08-23T21:48:34.298Z,99.90
2022-08-23T21:51:01.028Z,99.90
2022-08-23T21:53:27.790Z,99.90
2022-08-23T21:55:54.447Z,99.90
2022-08-23T21:58:21.360Z,99.90
2022-08-23T22:00:48.082Z,99.90
2022-08-23T22:03:15.166Z,99.90
2022-08-23T22:05:43.626Z,99.90
2022-08-23T22:08:14.103Z,99.90
2022-08-23T22:10:50.115Z,99.90
2022-08-23T22:13:24.134Z,99.90
2022-08-23T22:15:50.826Z,99.90
2022-08-23T22:18:17.577Z,99.90
2022-08-23T22:20:44.249Z,99.90
2022-08-23T22:23:11.300Z,99.90
2022-08-23T22:25:37.957Z,99.90
2022-08-23T22:28:04.600Z,99.90
2022-08-23T22:30:31.395Z,99.90
2022-08-23T22:32:58.144Z,99.90
2022-08-23T22:35:25.115Z,99.90
2022-08-23T22:38:14.646Z,99.90
2022-08-23T22:40:39.351Z,99.90
2022-08-23T22:43:06.138Z,99.90
2022-08-23T22:45:32.796Z,99.90
2022-08-23T22:47:59.611Z,99.90
2022-08-23T22:50:26.264Z,99.90
2022-08-23T22:52:52.897Z,99.90
2022-08-23T22:55:19.557Z,99.90
2022-08-23T22:57:46.229Z,99.90
2022-08-23T23:00:13.099Z,99.90
2022-08-23T23:02:40.809Z,99.90
2022-08-23T23:05:07.927Z,99.90
2022-08-23T23:07:52.955Z,99.90
2022-08-23T23:10:19.683Z,99.90
2022-08-23T23:12:46.814Z,99.90
2022-08-23T23:15:13.532Z,99.90
2022-08-23T23:17:40.199Z,99.90
2022-08-23T23:20:25.965Z,99.90
2022-08-23T23:22:52.736Z,99.90
2022-08-23T23:25:19.950Z,99.90
2022-08-23T23:27:46.610Z,99.90
2022-08-23T23:30:13.884Z,99.90
2022-08-23T23:32:40.816Z,99.90
2022-08-23T23:35:10.595Z,99.90
2022-08-23T23:37:37.642Z,99.90
2022-08-23T23:40:05.958Z,99.90
2022-08-23T23:42:32.761Z,99.90
2022-08-23T23:44:59.359Z,99.90
2022-08-23T23:47:26.100Z,99.90
2022-08-23T23:49:52.777Z,99.90
2022-08-23T23:52:19.445Z,99.90
2022-08-23T23:54:46.309Z,99.90
2022-08-23T23:57:13.183Z,99.90
2022-08-23T23:59:40.933Z,99.90
